createdAt,value
2023-09-15T00:00:21.844Z,97151.75
2023-09-15T00:02:48.838Z,97153.28
2023-09-15T00:05:16.390Z,97147.47
2023-09-15T00:07:42.980Z,97152.78
2023-09-15T00:10:32.457Z,97150.09
2023-09-15T00:12:59.580Z,97147.38
2023-09-15T00:15:27.147Z,97148.63
2023-09-15T00:17:56.139Z,97144.38
2023-09-15T00:20:22.905Z,97144.13
2023-09-15T00:22:54.775Z,97148.16
2023-09-15T00:25:24.090Z,97153.22
2023-09-15T00:27:53.111Z,97142.81
2023-09-15T00:30:23.011Z,97145.47
2023-09-15T00:32:50.408Z,97144.31
2023-09-15T00:35:19.115Z,97141.66
2023-09-15T00:37:50.597Z,97141.94
2023-09-15T00:40:19.820Z,97142.47
2023-09-15T00:42:48.409Z,97143.22
2023-09-15T00:45:17.068Z,97151.72
2023-09-15T00:47:47.651Z,97144.81
2023-09-15T00:50:15.962Z,97144.75
2023-09-15T00:52:46.447Z,97151.69
2023-09-15T00:55:14.678Z,97146.19
2023-09-15T00:57:41.968Z,97146.09
2023-09-15T01:00:13.188Z,97148.94
2023-09-15T01:02:46.569Z,97145.25
2023-09-15T01:05:21.003Z,97139.13
2023-09-15T01:07:48.407Z,97143.31
2023-09-15T01:10:15.780Z,97140.19
2023-09-15T01:12:44.684Z,97144.13
2023-09-15T01:15:11.664Z,97138.47
2023-09-15T01:17:59.966Z,97140.91
2023-09-15T01:20:54.395Z,97130.16
2023-09-15T01:23:42.464Z,97133.59
2023-09-15T01:26:21.330Z,97137.66
2023-09-15T01:29:15.929Z,97131.53
2023-09-15T01:31:44.351Z,97132.13
2023-09-15T01:34:14.615Z,97130.34
2023-09-15T01:36:41.693Z,97127.16
2023-09-15T01:39:09.378Z,97128.47
2023-09-15T01:41:36.018Z,97133.78
2023-09-15T01:44:02.773Z,97137.78
2023-09-15T01:46:30.228Z,97140.66
2023-09-15T01:49:00.436Z,97135.56
2023-09-15T01:51:29.084Z,97140.59
2023-09-15T01:53:55.947Z,97142.69
2023-09-15T01:56:24.428Z,97140.53
2023-09-15T01:58:51.152Z,97132.63
2023-09-15T02:01:18.520Z,97132.31
2023-09-15T02:03:45.229Z,97137.41
2023-09-15T02:06:17.858Z,97120.88
2023-09-15T02:08:48.637Z,97129.59
2023-09-15T02:11:15.713Z,97126.91
2023-09-15T02:13:43.676Z,97110.72
2023-09-15T02:16:12.473Z,97121.47
2023-09-15T02:18:39.252Z,97120.75
2023-09-15T02:21:05.861Z,97117.38
2023-09-15T02:23:32.498Z,97118.50
2023-09-15T02:26:03.711Z,97117.44
2023-09-15T02:28:30.534Z,97125.69
2023-09-15T02:30:57.470Z,97120.22
2023-09-15T02:33:24.533Z,97096.72
2023-09-15T02:35:51.501Z,97124.66
2023-09-15T02:38:18.857Z,97123.09
2023-09-15T02:40:45.514Z,97115.06
2023-09-15T02:43:12.053Z,97114.75
2023-09-15T02:45:39.316Z,97087.03
2023-09-15T02:48:07.359Z,97080.09
2023-09-15T02:50:34.573Z,97103.06
2023-09-15T02:53:01.756Z,97111.72
2023-09-15T02:55:28.509Z,97113.25
2023-09-15T02:57:56.135Z,97112.97
2023-09-15T03:00:22.894Z,97107.41
2023-09-15T03:02:50.405Z,97110.50
2023-09-15T03:05:21.520Z,97112.31
2023-09-15T03:07:48.113Z,97105.59
2023-09-15T03:10:16.131Z,97109.25
2023-09-15T03:12:42.797Z,97105.50
2023-09-15T03:15:10.277Z,97115.06
2023-09-15T03:17:40.774Z,97097.03
2023-09-15T03:20:16.598Z,97112.13
2023-09-15T03:22:44.885Z,97114.94
2023-09-15T03:25:12.289Z,97110.94
2023-09-15T03:27:40.038Z,97111.66
2023-09-15T03:30:07.743Z,97107.44
2023-09-15T03:32:35.105Z,97110.81
2023-09-15T03:35:02.004Z,97101.78
2023-09-15T03:37:28.731Z,97107.13
2023-09-15T03:39:55.354Z,97091.44
2023-09-15T03:42:22.630Z,97102.28
2023-09-15T03:44:50.079Z,97106.09
2023-09-15T03:47:16.774Z,97101.72
2023-09-15T03:49:44.229Z,97099.41
2023-09-15T03:52:10.778Z,97107.16
2023-09-15T03:54:37.815Z,97100.13
2023-09-15T03:57:06.245Z,97085.13
2023-09-15T03:59:33.498Z,97099.34
2023-09-15T04:02:00.231Z,97095.91
2023-09-15T04:04:26.926Z,97101.56
2023-09-15T04:06:54.947Z,97099.25
2023-09-15T04:09:21.610Z,97098.06
2023-09-15T04:11:48.102Z,97103.25
2023-09-15T04:14:14.671Z,97100.56
2023-09-15T04:16:41.231Z,97093.91
2023-09-15T04:19:08.346Z,97097.66
2023-09-15T04:21:36.523Z,97069.13
2023-09-15T04:24:03.357Z,97093.22
2023-09-15T04:26:29.978Z,97076.69
2023-09-15T04:28:59.271Z,97088.50
2023-09-15T04:31:26.052Z,97076.53
2023-09-15T04:33:52.978Z,97102.00
2023-09-15T04:36:19.624Z,97098.47
2023-09-15T04:38:46.685Z,97095.13
2023-09-15T04:41:13.759Z,97104.06
2023-09-15T04:43:40.621Z,97110.72
2023-09-15T04:46:07.389Z,97105.19
2023-09-15T04:48:34.276Z,97106.88
2023-09-15T04:51:00.875Z,97105.66
2023-09-15T04:53:29.244Z,97103.44
2023-09-15T04:55:55.864Z,97108.22
2023-09-15T04:58:22.950Z,97098.50
2023-09-15T05:00:49.709Z,97094.81
2023-09-15T05:03:16.508Z,97088.44
2023-09-15T05:05:44.693Z,97098.63
2023-09-15T05:08:12.132Z,97102.94
2023-09-15T05:10:38.767Z,97100.06
2023-09-15T05:13:06.698Z,97105.19
2023-09-15T05:15:35.697Z,97092.53
2023-09-15T05:18:03.427Z,97107.25
2023-09-15T05:20:31.877Z,97106.28
2023-09-15T05:22:58.652Z,97105.59
2023-09-15T05:25:25.275Z,97110.38
2023-09-15T05:27:51.937Z,97109.31
2023-09-15T05:30:18.748Z,97106.66
2023-09-15T05:32:45.394Z,97108.75
2023-09-15T05:35:12.128Z,97111.25
2023-09-15T05:37:38.875Z,97090.53
2023-09-15T05:40:06.246Z,97112.44
2023-09-15T05:42:32.904Z,97114.56
2023-09-15T05:45:00.301Z,97107.38
2023-09-15T05:47:26.928Z,97106.13
2023-09-15T05:49:53.519Z,97115.59
2023-09-15T05:52:20.164Z,97110.19
2023-09-15T05:54:46.856Z,97108.66
2023-09-15T05:57:13.497Z,97110.78
2023-09-15T05:59:40.025Z,97118.03
2023-09-15T06:02:08.262Z,97121.28
2023-09-15T06:04:35.005Z,97113.03
2023-09-15T06:07:02.653Z,97115.44
2023-09-15T06:09:30.384Z,97117.78
2023-09-15T06:11:57.005Z,97109.38
2023-09-15T06:14:23.622Z,97108.56
2023-09-15T06:16:50.297Z,97111.50
2023-09-15T06:19:16.952Z,97094.00
2023-09-15T06:21:43.564Z,97092.16
2023-09-15T06:24:10.030Z,97105.91
2023-09-15T06:26:37.847Z,97099.81
2023-09-15T06:29:04.604Z,97099.31
2023-09-15T06:31:31.331Z,97095.06
2023-09-15T06:33:57.930Z,97099.56
2023-09-15T06:36:24.751Z,97095.56
2023-09-15T06:38:51.863Z,97100.81
2023-09-15T06:41:18.484Z,97100.22
2023-09-15T06:43:45.114Z,97100.53
2023-09-15T06:46:12.321Z,97103.22
2023-09-15T06:48:39.121Z,97102.06
2023-09-15T06:51:05.697Z,97098.13
2023-09-15T06:53:32.357Z,97097.97
2023-09-15T06:55:59.022Z,97102.50
2023-09-15T06:58:27.332Z,97101.22
2023-09-15T07:00:57.973Z,97096.13
2023-09-15T07:03:26.160Z,97096.94
2023-09-15T07:05:53.617Z,97096.38
2023-09-15T07:08:20.237Z,97091.66
2023-09-15T07:10:52.300Z,97088.41
2023-09-15T07:13:19.486Z,97078.66
2023-09-15T07:15:46.360Z,97084.41
2023-09-15T07:18:13.681Z,97088.97
2023-09-15T07:20:40.391Z,97081.56
2023-09-15T07:23:07.075Z,97083.00
2023-09-15T07:25:33.779Z,97084.72
2023-09-15T07:28:00.422Z,97086.75
2023-09-15T07:30:27.031Z,97085.88
2023-09-15T07:32:53.658Z,97074.59
2023-09-15T07:35:20.374Z,97076.41
2023-09-15T07:37:47.005Z,97062.31
2023-09-15T07:40:13.749Z,97088.28
2023-09-15T07:42:40.402Z,97078.53
2023-09-15T07:45:07.926Z,97083.75
2023-09-15T07:47:34.601Z,97075.28
2023-09-15T07:50:01.344Z,97077.09
2023-09-15T07:52:28.970Z,97071.59
2023-09-15T07:54:55.790Z,97074.81
2023-09-15T07:57:22.455Z,97071.31
2023-09-15T07:59:52.059Z,97065.75
2023-09-15T08:02:19.756Z,97059.03
2023-09-15T08:04:46.549Z,97060.28
2023-09-15T08:07:13.308Z,97068.94
2023-09-15T08:09:40.075Z,97061.16
2023-09-15T08:12:07.489Z,97062.38
2023-09-15T08:14:34.121Z,97074.38
2023-09-15T08:17:01.009Z,97072.84
2023-09-15T08:19:28.744Z,97057.56
2023-09-15T08:21:55.475Z,97067.09
2023-09-15T08:24:22.108Z,97067.28
2023-09-15T08:26:48.738Z,97071.88
2023-09-15T08:29:15.428Z,97069.97
2023-09-15T08:31:42.292Z,97064.25
2023-09-15T08:34:09.172Z,97067.38
2023-09-15T08:36:35.862Z,97070.94
2023-09-15T08:39:03.506Z,97072.16
2023-09-15T08:41:41.493Z,97053.03
2023-09-15T08:44:12.201Z,97044.25
2023-09-15T08:46:42.828Z,97067.38
2023-09-15T08:49:10.835Z,97065.91
2023-09-15T08:51:38.624Z,97051.44
2023-09-15T08:54:05.558Z,97061.31
2023-09-15T08:56:32.807Z,97059.97
2023-09-15T08:59:00.548Z,97062.44
2023-09-15T09:01:28.252Z,97057.09
2023-09-15T09:03:55.242Z,97062.22
2023-09-15T09:06:24.095Z,97050.56
2023-09-15T09:08:50.858Z,97054.22
2023-09-15T09:11:17.614Z,97070.81
2023-09-15T09:13:54.288Z,97058.69
2023-09-15T09:16:22.914Z,97036.19
2023-09-15T09:18:58.484Z,97061.44
2023-09-15T09:21:27.632Z,96978.00
2023-09-15T09:23:55.550Z,96985.69
2023-09-15T09:26:22.846Z,97057.72
2023-09-15T09:28:50.384Z,96984.34
2023-09-15T09:31:17.711Z,97002.63
2023-09-15T09:33:44.685Z,96961.25
2023-09-15T09:36:17.943Z,97031.75
2023-09-15T09:38:51.603Z,97043.38
2023-09-15T09:41:21.634Z,97051.63
2023-09-15T09:43:52.296Z,97021.97
2023-09-15T09:46:22.756Z,96962.06
2023-09-15T09:48:52.828Z,96986.03
2023-09-15T09:51:22.537Z,96991.16
2023-09-15T09:53:57.016Z,96937.38
2023-09-15T09:56:24.624Z,96987.00
2023-09-15T09:58:51.627Z,97010.22
2023-09-15T10:01:19.791Z,96940.28
2023-09-15T10:03:47.098Z,96987.50
2023-09-15T10:06:17.529Z,96937.69
2023-09-15T10:08:47.555Z,96885.56
2023-09-15T10:11:16.675Z,96882.28
2023-09-15T10:13:45.012Z,96920.53
2023-09-15T10:16:12.484Z,96952.53
2023-09-15T10:18:39.618Z,96996.25
2023-09-15T10:21:08.282Z,96977.50
2023-09-15T10:23:36.543Z,97018.88
2023-09-15T10:26:05.109Z,97017.56
2023-09-15T10:31:03.021Z,96980.53
2023-09-15T10:33:30.671Z,96950.31
2023-09-15T10:36:05.910Z,96936.13
2023-09-15T10:38:35.915Z,96924.75
2023-09-15T10:41:09.400Z,96857.13
2023-09-15T10:43:38.101Z,96925.59
2023-09-15T10:46:05.815Z,96955.81
2023-09-15T10:48:41.084Z,97003.22
2023-09-15T10:51:11.294Z,96947.38
2023-09-15T10:54:02.191Z,96987.44
2023-09-15T10:56:29.561Z,96865.84
2023-09-15T10:58:56.812Z,96946.59
2023-09-15T11:01:23.834Z,96967.44
2023-09-15T11:03:54.533Z,96948.03
2023-09-15T11:06:26.465Z,96924.53
2023-09-15T11:08:54.554Z,96996.72
2023-09-15T11:11:21.528Z,96899.47
2023-09-15T11:13:50.744Z,96977.03
2023-09-15T11:16:17.914Z,96832.00
2023-09-15T11:18:46.977Z,96847.59
2023-09-15T11:21:16.537Z,96922.31
2023-09-15T11:23:49.760Z,96865.63
2023-09-15T11:26:27.178Z,96865.09
2023-09-15T11:28:55.959Z,96883.84
2023-09-15T11:31:24.689Z,96978.75
2023-09-15T11:33:56.790Z,96880.94
2023-09-15T11:36:24.540Z,96902.88
2023-09-15T11:38:55.016Z,96914.72
2023-09-15T11:41:30.531Z,96827.22
2023-09-15T11:43:58.660Z,96919.69
2023-09-15T11:46:26.233Z,96875.16
2023-09-15T11:48:55.959Z,96973.44
2023-09-15T11:51:26.359Z,96905.25
2023-09-15T11:53:53.993Z,96810.63
2023-09-15T11:56:21.836Z,96853.56
2023-09-15T11:58:52.559Z,96944.94
2023-09-15T12:01:20.879Z,96775.34
2023-09-15T12:03:51.773Z,96860.38
2023-09-15T12:06:21.615Z,96801.03
2023-09-15T12:08:51.293Z,96789.00
2023-09-15T12:11:19.402Z,96844.25
2023-09-15T12:13:50.301Z,96780.69
2023-09-15T12:16:30.241Z,96863.47
2023-09-15T12:19:00.221Z,96806.34
2023-09-15T12:21:29.527Z,96851.41
2023-09-15T12:24:09.715Z,96920.88
2023-09-15T12:26:41.922Z,96809.00
2023-09-15T12:29:10.417Z,96773.06
2023-09-15T12:31:43.109Z,96765.94
2023-09-15T12:34:20.361Z,96856.66
2023-09-15T12:36:52.850Z,96854.56
2023-09-15T12:39:19.864Z,96798.78
2023-09-15T12:41:52.201Z,96767.34
2023-09-15T12:44:29.034Z,96910.94
2023-09-15T12:46:56.408Z,96752.69
2023-09-15T12:49:23.500Z,96837.44
2023-09-15T12:51:50.202Z,96898.22
2023-09-15T12:54:17.134Z,96750.53
2023-09-15T12:56:44.054Z,96889.69
2023-09-15T12:59:10.944Z,96855.47
2023-09-15T13:01:37.749Z,96855.47
2023-09-15T13:04:04.704Z,96888.72
2023-09-15T13:06:31.787Z,96881.00
2023-09-15T13:08:59.161Z,96866.25
2023-09-15T13:11:26.067Z,96854.56
2023-09-15T13:13:54.389Z,96861.00
2023-09-15T13:16:21.647Z,96798.56
2023-09-15T13:18:48.635Z,96771.22
2023-09-15T13:21:15.521Z,96847.91
2023-09-15T13:23:42.307Z,96863.16
2023-09-15T13:26:10.694Z,96869.69
2023-09-15T13:28:37.844Z,96867.16
2023-09-15T13:31:05.288Z,96854.19
2023-09-15T13:33:32.729Z,96835.03
2023-09-15T13:35:59.640Z,96713.25
2023-09-15T13:38:26.738Z,96834.66
2023-09-15T13:40:53.798Z,96779.94
2023-09-15T13:43:20.956Z,96838.25
2023-09-15T13:45:54.329Z,96786.56
2023-09-15T13:48:23.721Z,96836.31
2023-09-15T13:50:51.829Z,96848.41
2023-09-15T13:53:19.024Z,96734.78
2023-09-15T13:55:48.802Z,96855.34
2023-09-15T13:58:17.228Z,96842.97
2023-09-15T14:00:56.779Z,96847.41
2023-09-15T14:03:24.448Z,96782.56
2023-09-15T14:05:51.924Z,96846.31
2023-09-15T14:08:19.110Z,96843.03
2023-09-15T14:10:46.031Z,96834.78
2023-09-15T14:13:16.010Z,96822.50
2023-09-15T14:15:45.500Z,96791.00
2023-09-15T14:18:15.255Z,96827.31
2023-09-15T14:20:42.252Z,96821.00
2023-09-15T14:23:08.843Z,96821.69
2023-09-15T14:25:35.537Z,96823.84
2023-09-15T14:28:02.409Z,96749.44
2023-09-15T14:30:29.089Z,96741.16
2023-09-15T14:32:57.920Z,96819.59
2023-09-15T14:35:24.782Z,96817.56
2023-09-15T14:37:51.542Z,96752.91
2023-09-15T14:40:18.286Z,96805.69
2023-09-15T14:42:45.162Z,96774.22
2023-09-15T14:45:11.989Z,96819.28
2023-09-15T14:47:38.735Z,96817.75
2023-09-15T14:50:06.830Z,96799.72
2023-09-15T14:52:34.799Z,96729.69
2023-09-15T14:55:01.671Z,96801.63
2023-09-15T14:57:28.590Z,96785.75
2023-09-15T14:59:55.344Z,96790.41
2023-09-15T15:02:22.150Z,96788.88
2023-09-15T15:04:48.994Z,96804.16
2023-09-15T15:07:16.273Z,96799.75
2023-09-15T15:09:43.377Z,96801.28
2023-09-15T15:12:12.077Z,96739.13
2023-09-15T15:14:38.849Z,96803.84
2023-09-15T15:17:06.162Z,96714.44
2023-09-15T15:19:32.984Z,96791.59
2023-09-15T15:21:59.622Z,96783.88
2023-09-15T15:24:26.372Z,96797.59
2023-09-15T15:26:53.154Z,96758.38
2023-09-15T15:29:19.774Z,96735.06
2023-09-15T15:31:48.807Z,96783.91
2023-09-15T15:34:15.605Z,96786.78
2023-09-15T15:36:42.455Z,96776.53
2023-09-15T15:39:09.048Z,96785.31
2023-09-15T15:41:35.863Z,96792.59
2023-09-15T15:44:02.673Z,96782.66
2023-09-15T15:46:29.392Z,96795.59
2023-09-15T15:48:56.193Z,96786.13
2023-09-15T15:51:23.051Z,96793.38
2023-09-15T15:53:49.933Z,96793.69
2023-09-15T15:56:17.104Z,96787.84
2023-09-15T15:58:43.850Z,96788.63
2023-09-15T16:01:11.381Z,96789.41
2023-09-15T16:03:38.273Z,96783.59
2023-09-15T16:06:05.019Z,96736.13
2023-09-15T16:08:32.726Z,96711.41
2023-09-15T16:11:05.665Z,96776.84
2023-09-15T16:13:36.651Z,96757.25
2023-09-15T16:16:04.958Z,96777.25
2023-09-15T16:18:31.909Z,96781.69
2023-09-15T16:20:59.673Z,96792.88
2023-09-15T16:23:26.570Z,96795.88
2023-09-15T16:25:53.430Z,96795.88
2023-09-15T16:28:20.524Z,96658.13
2023-09-15T16:30:47.462Z,96791.75
2023-09-15T16:33:14.362Z,96791.00
2023-09-15T16:35:43.141Z,96764.91
2023-09-15T16:38:10.524Z,96798.66
2023-09-15T16:40:38.449Z,96775.91
2023-09-15T16:43:06.513Z,96685.97
2023-09-15T16:45:34.252Z,96783.09
2023-09-15T16:48:03.961Z,96789.56
2023-09-15T16:50:32.964Z,96780.38
2023-09-15T16:53:00.015Z,96802.28
2023-09-15T16:55:26.802Z,96718.59
2023-09-15T16:57:56.150Z,96802.34
2023-09-15T17:00:23.731Z,96802.44
2023-09-15T17:02:50.584Z,96811.06
2023-09-15T17:05:17.380Z,96800.81
2023-09-15T17:07:44.199Z,96777.22
2023-09-15T17:10:13.674Z,96809.22
2023-09-15T17:12:44.260Z,96794.69
2023-09-15T17:15:12.631Z,96802.31
2023-09-15T17:17:41.922Z,96802.75
2023-09-15T17:20:11.860Z,96793.22
2023-09-15T17:22:38.538Z,96805.75
2023-09-15T17:25:05.660Z,96808.34
2023-09-15T17:27:32.360Z,96803.09
2023-09-15T17:29:59.087Z,96808.97
2023-09-15T17:32:25.994Z,96808.38
2023-09-15T17:34:52.720Z,96801.91
2023-09-15T17:37:19.596Z,96699.41
2023-09-15T17:39:51.128Z,96806.50
2023-09-15T17:42:20.743Z,96810.81
2023-09-15T17:44:47.392Z,96816.25
2023-09-15T17:47:14.099Z,96812.03
2023-09-15T17:49:43.533Z,96812.88
2023-09-15T17:52:12.669Z,96799.00
2023-09-15T17:54:39.531Z,96816.91
2023-09-15T17:57:06.424Z,96672.16
2023-09-15T17:59:33.179Z,96812.66
2023-09-15T18:01:59.934Z,96813.06
2023-09-15T18:04:26.980Z,96795.50
2023-09-15T18:06:53.794Z,96803.50
2023-09-15T18:09:20.690Z,96799.16
2023-09-15T18:11:47.447Z,96827.41
2023-09-15T18:14:14.479Z,96727.69
2023-09-15T18:16:41.533Z,96763.41
2023-09-15T18:19:08.901Z,96667.44
2023-09-15T18:21:35.883Z,96726.31
2023-09-15T18:24:03.042Z,96773.47
2023-09-15T18:26:30.041Z,96823.09
2023-09-15T18:28:57.171Z,96681.25
2023-09-15T18:31:27.002Z,96772.06
2023-09-15T18:33:54.161Z,96838.50
2023-09-15T18:36:21.800Z,96703.47
2023-09-15T18:38:50.047Z,96836.50
2023-09-15T18:41:18.542Z,96690.50
2023-09-15T18:43:46.712Z,96670.94
2023-09-15T18:46:14.261Z,96809.31
2023-09-15T18:48:47.307Z,96741.28
2023-09-15T18:51:18.054Z,96799.50
2023-09-15T18:53:50.219Z,96793.22
2023-09-15T18:56:17.720Z,96806.50
2023-09-15T18:58:45.403Z,96714.56
2023-09-15T19:01:15.987Z,96797.69
2023-09-15T19:03:43.442Z,96701.56
2023-09-15T19:06:11.807Z,96797.03
2023-09-15T19:08:40.818Z,96867.34
2023-09-15T19:11:07.316Z,96870.34
2023-09-15T19:13:34.170Z,96870.16
2023-09-15T19:18:49.412Z,96876.25
2023-09-15T19:21:16.167Z,96857.47
2023-09-15T19:23:42.842Z,96877.63
2023-09-15T19:26:09.530Z,96871.56
2023-09-15T19:28:36.195Z,96877.63
2023-09-15T19:31:02.814Z,96857.06
2023-09-15T19:33:29.628Z,96870.53
2023-09-15T19:35:56.330Z,96875.59
2023-09-15T19:38:23.053Z,96885.13
2023-09-15T19:40:51.270Z,96880.91
2023-09-15T19:43:18.146Z,96881.22
2023-09-15T19:45:48.797Z,96861.88
2023-09-15T19:48:15.480Z,96864.78
2023-09-15T19:50:42.080Z,96866.94
2023-09-15T19:53:09.501Z,96882.06
2023-09-15T19:55:36.120Z,96861.66
2023-09-15T19:58:04.063Z,96875.16
2023-09-15T20:00:30.731Z,96869.88
2023-09-15T20:02:59.139Z,96857.72
2023-09-15T20:05:25.960Z,96860.88
2023-09-15T20:07:56.427Z,96866.72
2023-09-15T20:10:24.164Z,96862.44
2023-09-15T20:12:51.128Z,96855.59
2023-09-15T20:15:17.742Z,96851.63
2023-09-15T20:17:45.736Z,96845.25
2023-09-15T20:20:17.879Z,96841.81
2023-09-15T20:22:45.684Z,96847.66
2023-09-15T20:25:12.663Z,96852.69
2023-09-15T20:27:42.216Z,96850.81
2023-09-15T20:30:10.029Z,96842.09
2023-09-15T20:32:37.059Z,96850.84
2023-09-15T20:35:05.639Z,96855.06
2023-09-15T20:37:32.200Z,96850.59
2023-09-15T20:39:58.797Z,96847.94
2023-09-15T20:42:25.974Z,96842.13
2023-09-15T20:44:52.812Z,96849.25
2023-09-15T20:47:19.706Z,96839.22
2023-09-15T20:49:48.412Z,96835.50
2023-09-15T20:52:15.474Z,96838.69
2023-09-15T20:54:42.548Z,96838.16
2023-09-15T20:57:09.170Z,96840.28
2023-09-15T20:59:36.381Z,96838.97
2023-09-15T21:02:02.955Z,96832.88
2023-09-15T21:04:29.550Z,96839.47
2023-09-15T21:06:56.276Z,96843.47
2023-09-15T21:09:23.081Z,96832.09
2023-09-15T21:11:49.770Z,96844.50
2023-09-15T21:14:16.427Z,96840.53
2023-09-15T21:16:43.164Z,96847.69
2023-09-15T21:19:11.934Z,96852.69
2023-09-15T21:21:39.541Z,96836.31
2023-09-15T21:24:06.434Z,96850.06
2023-09-15T21:26:33.071Z,96851.63
2023-09-15T21:28:59.799Z,96852.19
2023-09-15T21:31:27.909Z,96858.75
2023-09-15T21:33:54.751Z,96849.78
2023-09-15T21:36:21.666Z,96847.34
2023-09-15T21:38:49.351Z,96858.75
2023-09-15T21:41:16.781Z,96848.38
2023-09-15T21:43:43.498Z,96839.69
2023-09-15T21:46:10.148Z,96847.38
2023-09-15T21:48:38.914Z,96843.88
2023-09-15T21:51:06.087Z,96868.75
2023-09-15T21:53:34.190Z,96861.09
2023-09-15T21:56:01.260Z,96874.06
2023-09-15T21:58:28.088Z,96883.63
2023-09-15T22:18:25.586Z,96856.88
2023-09-15T22:20:52.382Z,96853.75
2023-09-15T22:23:19.642Z,96850.84
2023-09-15T22:25:46.460Z,96857.50
2023-09-15T22:28:13.040Z,96857.00
2023-09-15T22:30:39.573Z,96856.72
2023-09-15T22:33:06.281Z,96851.22
2023-09-15T22:35:32.942Z,96834.53
2023-09-15T22:37:59.640Z,96834.00
2023-09-15T22:40:26.580Z,96843.81
2023-09-15T22:42:53.682Z,96841.44
2023-09-15T22:45:23.310Z,96829.50
2023-09-15T22:47:56.723Z,96845.88
2023-09-15T22:50:25.291Z,96838.22
2023-09-15T22:52:53.727Z,96831.34
2023-09-15T22:55:21.879Z,96814.91
2023-09-15T22:57:49.055Z,96835.81
2023-09-15T23:00:17.830Z,96833.69
2023-09-15T23:02:47.651Z,96835.28
2023-09-15T23:05:14.690Z,96832.66
2023-09-15T23:07:41.713Z,96835.28
2023-09-15T23:10:09.695Z,96832.84
2023-09-15T23:12:37.128Z,96830.72
2023-09-15T23:15:03.978Z,96825.44
2023-09-15T23:17:31.130Z,96809.00
2023-09-15T23:19:58.053Z,96831.75
2023-09-15T23:22:25.068Z,96835.19
2023-09-15T23:24:52.750Z,96817.41
2023-09-15T23:27:19.874Z,96815.84
2023-09-15T23:29:46.980Z,96818.53
2023-09-15T23:32:13.785Z,96818.28
2023-09-15T23:34:40.566Z,96799.13
2023-09-15T23:37:07.400Z,96792.81
2023-09-15T23:39:36.287Z,96811.41
2023-09-15T23:42:03.931Z,96814.78
2023-09-15T23:44:31.111Z,96811.09
2023-09-15T23:46:57.869Z,96815.03
2023-09-15T23:49:24.883Z,96782.75
2023-09-15T23:51:52.275Z,96814.25
2023-09-15T23:54:19.322Z,96815.03
2023-09-15T23:56:46.304Z,96809.47
2023-09-15T23:59:13.356Z,96810.56
